createdAt,value
2023-03-17T00:00:52.457Z,2.55
2023-03-17T00:03:09.496Z,2.50
2023-03-17T00:05:26.431Z,2.45
2023-03-17T00:07:43.458Z,2.43
2023-03-17T00:10:00.472Z,2.43
2023-03-17T00:12:18.722Z,2.43
2023-03-17T00:14:35.668Z,2.43
2023-03-17T00:16:52.688Z,2.44
2023-03-17T00:19:09.968Z,2.46
2023-03-17T00:21:27.230Z,2.42
2023-03-17T00:23:44.292Z,2.38
2023-03-17T00:26:01.201Z,2.35
2023-03-17T00:28:18.123Z,2.32
2023-03-17T00:30:35.144Z,2.31
2023-03-17T00:32:52.105Z,2.30
2023-03-17T00:35:10.124Z,2.30
2023-03-17T00:37:28.429Z,2.33
2023-03-17T00:39:45.896Z,2.34
2023-03-17T00:42:02.850Z,2.37
2023-03-17T00:44:20.099Z,2.42
2023-03-17T00:46:37.383Z,2.41
2023-03-17T00:48:54.387Z,2.38
2023-03-17T00:51:12.449Z,2.34
2023-03-17T00:53:29.420Z,2.31
2023-03-17T00:55:47.435Z,2.28
2023-03-17T00:58:04.437Z,2.27
2023-03-17T01:00:21.328Z,2.27
2023-03-17T01:02:38.284Z,2.26
2023-03-17T01:05:05.438Z,2.25
2023-03-17T01:07:22.973Z,2.22
2023-03-17T01:09:39.901Z,2.20
2023-03-17T01:11:56.834Z,2.18
2023-03-17T01:14:14.062Z,2.19
2023-03-17T01:16:31.021Z,2.22
2023-03-17T01:18:47.986Z,2.20
2023-03-17T01:21:04.968Z,2.17
2023-03-17T01:23:21.920Z,2.15
2023-03-17T01:25:38.846Z,2.14
2023-03-17T01:27:55.884Z,2.11
2023-03-17T01:30:12.913Z,2.10
2023-03-17T01:32:29.929Z,2.07
2023-03-17T01:34:46.988Z,2.05
2023-03-17T01:37:03.942Z,2.04
2023-03-17T01:39:21.887Z,2.00
2023-03-17T01:41:38.925Z,2.00
2023-03-17T01:43:56.940Z,2.00
2023-03-17T01:46:13.850Z,1.99
2023-03-17T01:48:32.057Z,1.97
2023-03-17T01:50:49.282Z,1.94
2023-03-17T01:53:07.146Z,1.95
2023-03-17T01:55:24.164Z,1.96
2023-03-17T01:57:41.461Z,1.92
2023-03-17T01:59:59.288Z,1.89
2023-03-17T02:02:16.154Z,1.87
2023-03-17T02:04:33.124Z,1.85
2023-03-17T02:06:57.966Z,1.82
2023-03-17T02:09:15.618Z,1.79
2023-03-17T02:11:32.458Z,1.78
2023-03-17T02:13:49.794Z,1.74
2023-03-17T02:16:06.698Z,1.74
2023-03-17T02:18:23.618Z,1.73
2023-03-17T02:20:41.870Z,1.70
2023-03-17T02:22:58.916Z,1.65
2023-03-17T02:25:15.956Z,1.61
2023-03-17T02:27:32.949Z,1.58
2023-03-17T02:29:50.194Z,1.58
2023-03-17T02:32:07.145Z,1.60
2023-03-17T02:34:25.085Z,1.58
2023-03-17T02:36:41.972Z,1.56
2023-03-17T02:38:58.874Z,1.58
2023-03-17T02:41:16.184Z,1.57
2023-03-17T02:43:33.169Z,1.55
2023-03-17T02:45:50.084Z,1.51
2023-03-17T02:48:07.085Z,1.49
2023-03-17T02:50:24.017Z,1.49
2023-03-17T02:52:40.986Z,1.49
2023-03-17T02:54:57.986Z,1.46
2023-03-17T02:57:15.028Z,1.42
2023-03-17T02:59:31.968Z,1.37
2023-03-17T03:01:50.015Z,1.34
2023-03-17T03:04:06.983Z,1.34
2023-03-17T03:06:25.001Z,1.32
2023-03-17T03:08:42.056Z,1.32
2023-03-17T03:10:59.030Z,1.32
2023-03-17T03:13:16.012Z,1.33
2023-03-17T03:15:32.878Z,1.34
2023-03-17T03:17:49.832Z,1.32
2023-03-17T03:20:06.881Z,1.29
2023-03-17T03:22:23.787Z,1.29
2023-03-17T03:24:40.824Z,1.28
2023-03-17T03:26:57.891Z,1.26
2023-03-17T03:29:15.114Z,1.27
2023-03-17T03:31:32.205Z,1.24
2023-03-17T03:33:49.569Z,1.21
2023-03-17T03:36:06.707Z,1.18
2023-03-17T03:38:23.724Z,1.16
2023-03-17T03:40:40.667Z,1.16
2023-03-17T03:42:57.726Z,1.17
2023-03-17T03:45:14.667Z,1.17
2023-03-17T03:47:31.695Z,1.14
2023-03-17T03:49:48.724Z,1.09
2023-03-17T03:52:05.721Z,1.02
2023-03-17T03:54:23.026Z,1.01
2023-03-17T03:56:40.902Z,0.98
2023-03-17T03:58:58.116Z,0.93
2023-03-17T04:01:15.051Z,0.87
2023-03-17T04:03:32.338Z,0.90
2023-03-17T04:05:49.354Z,0.92
2023-03-17T04:08:06.656Z,0.92
2023-03-17T04:10:23.710Z,0.90
2023-03-17T04:12:41.062Z,0.90
2023-03-17T04:14:58.109Z,0.90
2023-03-17T04:17:15.129Z,0.89
2023-03-17T04:19:32.379Z,0.90
2023-03-17T04:21:49.380Z,0.91
2023-03-17T04:24:06.331Z,0.87
2023-03-17T04:26:23.221Z,0.82
2023-03-17T04:28:40.727Z,0.80
2023-03-17T04:30:57.668Z,0.78
2023-03-17T04:33:14.578Z,0.77
2023-03-17T04:35:31.670Z,0.76
2023-03-17T04:37:48.765Z,0.73
2023-03-17T04:40:05.846Z,0.76
2023-03-17T04:42:22.864Z,0.76
2023-03-17T04:44:39.906Z,0.77
2023-03-17T04:46:56.967Z,0.74
2023-03-17T04:49:15.004Z,0.73
2023-03-17T04:51:32.029Z,0.70
2023-03-17T04:53:49.087Z,0.68
2023-03-17T04:56:07.076Z,0.70
2023-03-17T04:58:30.713Z,0.67
2023-03-17T05:00:48.272Z,0.65
2023-03-17T05:03:11.204Z,0.67
2023-03-17T05:05:33.733Z,0.67
2023-03-17T05:07:50.656Z,0.68
2023-03-17T05:10:07.630Z,0.70
2023-03-17T05:12:24.673Z,0.67
2023-03-17T05:14:41.651Z,0.61
2023-03-17T05:16:58.598Z,0.58
2023-03-17T05:19:15.517Z,0.55
2023-03-17T05:21:32.456Z,0.56
2023-03-17T05:23:49.356Z,0.62
2023-03-17T05:26:06.650Z,0.65
2023-03-17T05:28:23.638Z,0.68
2023-03-17T05:30:41.550Z,0.73
2023-03-17T05:32:58.540Z,0.76
2023-03-17T05:35:15.878Z,0.77
2023-03-17T05:37:32.810Z,0.77
2023-03-17T05:39:49.788Z,0.78
2023-03-17T05:42:06.683Z,0.81
2023-03-17T05:44:24.021Z,0.83
2023-03-17T05:46:40.925Z,0.84
2023-03-17T05:48:57.968Z,0.83
2023-03-17T05:51:14.964Z,0.84
2023-03-17T05:53:32.126Z,0.85
2023-03-17T05:55:49.207Z,0.85
2023-03-17T05:58:06.460Z,0.86
2023-03-17T06:00:23.447Z,0.86
2023-03-17T06:02:40.507Z,0.89
2023-03-17T06:04:58.703Z,0.90
2023-03-17T06:07:15.678Z,0.92
2023-03-17T06:09:32.862Z,0.96
2023-03-17T06:11:49.808Z,1.04
2023-03-17T06:14:08.154Z,1.08
2023-03-17T06:16:25.209Z,1.13
2023-03-17T06:18:42.210Z,1.19
2023-03-17T06:20:59.551Z,1.25
2023-03-17T06:23:16.484Z,1.32
2023-03-17T06:25:33.825Z,1.35
2023-03-17T06:27:51.055Z,1.40
2023-03-17T06:30:08.091Z,1.45
2023-03-17T06:32:25.137Z,1.51
2023-03-17T06:34:42.139Z,1.57
2023-03-17T06:36:59.176Z,1.63
2023-03-17T06:39:16.108Z,1.70
2023-03-17T06:41:33.015Z,1.76
2023-03-17T06:43:49.978Z,1.88
2023-03-17T06:46:06.958Z,1.94
2023-03-17T06:48:23.914Z,2.02
2023-03-17T06:50:40.886Z,2.04
2023-03-17T06:52:57.822Z,2.10
2023-03-17T06:55:14.911Z,2.14
2023-03-17T06:57:32.252Z,2.15
2023-03-17T06:59:49.266Z,2.18
2023-03-17T07:02:06.550Z,2.25
2023-03-17T07:04:23.591Z,2.29
2023-03-17T07:06:40.818Z,2.34
2023-03-17T07:08:58.247Z,2.40
2023-03-17T07:11:16.003Z,2.43
2023-03-17T07:13:32.945Z,2.44
2023-03-17T07:15:51.000Z,2.52
2023-03-17T07:18:08.296Z,2.59
2023-03-17T07:20:25.206Z,2.62
2023-03-17T07:22:42.421Z,2.66
2023-03-17T07:24:59.670Z,2.70
2023-03-17T07:27:17.594Z,2.74
2023-03-17T07:29:34.846Z,2.80
2023-03-17T07:31:52.150Z,2.86
2023-03-17T07:34:10.388Z,2.91
2023-03-17T07:36:27.693Z,2.98
2023-03-17T07:38:44.641Z,3.07
2023-03-17T07:41:01.640Z,3.16
2023-03-17T07:43:18.903Z,3.24
2023-03-17T07:45:36.231Z,3.29
2023-03-17T07:47:53.557Z,3.36
2023-03-17T07:50:10.842Z,3.49
2023-03-17T07:52:27.922Z,3.57
2023-03-17T07:54:45.876Z,3.63
2023-03-17T07:57:03.049Z,3.71
2023-03-17T07:59:20.315Z,3.81
2023-03-17T08:01:37.393Z,3.96
2023-03-17T08:03:54.711Z,4.09
2023-03-17T08:06:11.624Z,4.27
2023-03-17T08:08:28.689Z,4.33
2023-03-17T08:10:45.992Z,4.49
2023-03-17T08:13:02.968Z,4.54
2023-03-17T08:15:21.227Z,4.63
2023-03-17T08:17:39.446Z,4.69
2023-03-17T08:19:56.459Z,4.80
2023-03-17T08:22:13.420Z,4.84
2023-03-17T08:24:30.438Z,4.93
2023-03-17T08:26:47.658Z,5.04
2023-03-17T08:29:04.670Z,5.11
2023-03-17T08:31:21.774Z,5.18
2023-03-17T08:33:38.768Z,5.26
2023-03-17T08:35:55.803Z,5.35
2023-03-17T08:38:13.101Z,5.41
2023-03-17T08:40:30.482Z,5.50
2023-03-17T08:42:47.544Z,5.57
2023-03-17T08:45:04.457Z,5.61
2023-03-17T08:47:22.439Z,5.66
2023-03-17T08:49:39.381Z,5.77
2023-03-17T08:51:56.661Z,5.81
2023-03-17T08:54:14.878Z,5.83
2023-03-17T08:56:31.769Z,5.88
2023-03-17T08:58:48.753Z,5.94
2023-03-17T09:01:05.862Z,6.00
2023-03-17T09:03:23.216Z,6.04
2023-03-17T09:05:41.306Z,6.12
2023-03-17T09:07:58.421Z,6.19
2023-03-17T09:10:15.466Z,6.25
2023-03-17T09:12:34.165Z,6.29
2023-03-17T09:14:51.650Z,6.37
2023-03-17T09:17:09.544Z,6.40
2023-03-17T09:19:26.601Z,6.46
2023-03-17T09:21:43.995Z,6.51
2023-03-17T09:24:02.689Z,6.57
2023-03-17T09:26:19.837Z,6.65
2023-03-17T09:28:37.135Z,6.71
2023-03-17T09:30:54.142Z,6.76
2023-03-17T09:33:11.117Z,6.82
2023-03-17T09:35:29.354Z,6.90
2023-03-17T09:37:47.642Z,6.95
2023-03-17T09:40:04.534Z,7.03
2023-03-17T09:42:21.509Z,7.12
2023-03-17T09:44:38.595Z,7.21
2023-03-17T09:46:55.670Z,7.28
2023-03-17T09:49:12.668Z,7.37
2023-03-17T09:51:29.640Z,7.47
2023-03-17T09:53:47.907Z,7.55
2023-03-17T09:56:04.793Z,7.65
2023-03-17T09:58:21.792Z,7.76
2023-03-17T10:00:38.711Z,7.83
2023-03-17T10:02:55.799Z,7.85
2023-03-17T10:05:13.198Z,7.91
2023-03-17T10:07:30.150Z,7.98
2023-03-17T10:09:47.234Z,8.02
2023-03-17T10:12:05.534Z,8.12
2023-03-17T10:14:22.842Z,8.20
2023-03-17T10:16:40.026Z,8.28
2023-03-17T10:18:57.277Z,8.35
2023-03-17T10:21:14.540Z,8.41
2023-03-17T10:23:31.454Z,8.47
2023-03-17T10:25:48.476Z,8.58
2023-03-17T10:28:08.869Z,8.64
2023-03-17T10:30:26.038Z,8.72
2023-03-17T10:32:43.116Z,8.78
2023-03-17T10:35:00.346Z,8.87
2023-03-17T10:37:17.256Z,8.99
2023-03-17T10:39:34.269Z,9.08
2023-03-17T10:41:51.529Z,9.17
2023-03-17T10:44:08.528Z,9.24
2023-03-17T10:46:25.690Z,9.35
2023-03-17T10:48:42.801Z,9.44
2023-03-17T10:51:00.083Z,9.49
2023-03-17T10:53:17.362Z,9.59
2023-03-17T10:55:34.763Z,9.68
2023-03-17T10:57:51.701Z,9.74
2023-03-17T11:00:09.019Z,9.87
2023-03-17T11:02:26.249Z,9.97
2023-03-17T11:04:43.192Z,10.09
2023-03-17T11:07:00.143Z,10.23
2023-03-17T11:09:17.060Z,10.34
2023-03-17T11:11:35.063Z,10.42
2023-03-17T11:13:52.394Z,10.50
2023-03-17T11:16:09.369Z,10.57
2023-03-17T11:18:26.337Z,10.63
2023-03-17T11:20:44.993Z,10.70
2023-03-17T11:23:02.072Z,10.77
2023-03-17T11:25:19.006Z,10.84
2023-03-17T11:27:36.217Z,10.88
2023-03-17T11:29:53.466Z,10.94
2023-03-17T11:32:10.743Z,10.95
2023-03-17T11:34:28.031Z,10.97
2023-03-17T11:36:45.316Z,10.97
2023-03-17T11:39:03.211Z,10.99
2023-03-17T11:41:20.220Z,11.05
2023-03-17T11:43:37.258Z,11.14
2023-03-17T11:45:54.618Z,11.14
2023-03-17T11:48:11.791Z,11.21
2023-03-17T11:50:28.796Z,11.25
2023-03-17T11:52:45.710Z,11.27
2023-03-17T11:55:02.980Z,11.33
2023-03-17T11:57:20.085Z,11.37
2023-03-17T11:59:37.403Z,11.50
2023-03-17T12:01:54.291Z,11.54
2023-03-17T12:04:11.473Z,11.63
2023-03-17T12:06:28.424Z,11.70
2023-03-17T12:08:45.575Z,11.81
2023-03-17T12:11:02.841Z,11.89
2023-03-17T12:13:19.962Z,11.97
2023-03-17T12:15:37.933Z,12.12
2023-03-17T12:17:54.916Z,12.26
2023-03-17T12:20:11.983Z,12.36
2023-03-17T12:22:29.094Z,12.44
2023-03-17T12:24:47.027Z,12.55
2023-03-17T12:27:04.320Z,12.58
2023-03-17T12:29:21.321Z,12.70
2023-03-17T12:31:38.336Z,12.76
2023-03-17T12:33:55.419Z,12.89
2023-03-17T12:36:12.548Z,12.88
2023-03-17T12:38:30.871Z,12.98
2023-03-17T12:40:47.763Z,12.95
2023-03-17T12:43:04.848Z,12.96
2023-03-17T12:45:21.759Z,13.10
2023-03-17T12:47:38.651Z,13.08
2023-03-17T12:49:55.678Z,13.13
2023-03-17T12:52:12.921Z,13.08
2023-03-17T12:54:29.944Z,13.05
2023-03-17T12:56:46.878Z,13.08
2023-03-17T12:59:03.775Z,13.14
2023-03-17T13:01:20.906Z,13.15
2023-03-17T13:03:38.058Z,13.15
2023-03-17T13:05:55.053Z,13.21
2023-03-17T13:08:12.038Z,13.28
2023-03-17T13:10:29.023Z,13.32
2023-03-17T13:12:46.253Z,13.37
2023-03-17T13:15:03.207Z,13.45
2023-03-17T13:17:20.487Z,13.48
2023-03-17T13:19:38.418Z,13.45
2023-03-17T13:21:55.451Z,13.43
2023-03-17T13:24:12.340Z,13.46
2023-03-17T13:26:29.815Z,13.44
2023-03-17T13:28:46.968Z,13.44
2023-03-17T13:31:04.405Z,13.39
2023-03-17T13:33:21.890Z,13.36
2023-03-17T13:35:38.996Z,13.39
2023-03-17T13:37:56.340Z,13.42
2023-03-17T13:40:13.532Z,13.44
2023-03-17T13:42:30.758Z,13.43
2023-03-17T13:44:49.013Z,13.44
2023-03-17T13:47:06.100Z,13.46
2023-03-17T13:49:23.322Z,13.45
2023-03-17T13:51:46.583Z,13.45
2023-03-17T13:54:11.396Z,13.44
2023-03-17T13:56:29.644Z,13.45
2023-03-17T13:58:46.916Z,13.48
2023-03-17T14:01:04.011Z,13.49
2023-03-17T14:03:21.081Z,13.52
2023-03-17T14:05:38.240Z,13.49
2023-03-17T14:07:55.181Z,13.52
2023-03-17T14:10:12.393Z,13.50
2023-03-17T14:12:29.723Z,13.52
2023-03-17T14:14:46.640Z,13.54
2023-03-17T14:17:03.710Z,13.54
2023-03-17T14:19:20.615Z,13.56
2023-03-17T14:21:37.464Z,13.56
2023-03-17T14:23:54.384Z,13.56
2023-03-17T14:26:11.301Z,13.57
2023-03-17T14:28:28.451Z,13.61
2023-03-17T14:30:45.364Z,13.60
2023-03-17T14:33:02.498Z,13.60
2023-03-17T14:35:19.651Z,13.62
2023-03-17T14:37:36.716Z,13.67
2023-03-17T14:39:54.001Z,13.68
2023-03-17T14:42:10.885Z,13.77
2023-03-17T14:44:27.821Z,13.80
2023-03-17T14:46:44.802Z,13.79
2023-03-17T14:49:02.260Z,13.89
2023-03-17T14:51:19.469Z,13.89
2023-03-17T14:53:36.329Z,13.86
2023-03-17T14:55:53.656Z,13.83
2023-03-17T14:58:10.543Z,13.77
2023-03-17T15:00:27.834Z,13.78
2023-03-17T15:02:44.776Z,13.81
2023-03-17T15:05:01.735Z,13.88
2023-03-17T15:07:18.728Z,13.81
2023-03-17T15:09:35.644Z,13.77
2023-03-17T15:11:52.561Z,13.68
2023-03-17T15:14:09.434Z,13.62
2023-03-17T15:16:27.394Z,13.60
2023-03-17T15:18:44.311Z,13.55
2023-03-17T15:21:01.208Z,13.49
2023-03-17T15:23:18.211Z,13.43
2023-03-17T15:25:35.277Z,13.35
2023-03-17T15:27:53.344Z,13.27
2023-03-17T15:30:10.396Z,13.20
2023-03-17T15:32:27.733Z,13.16
2023-03-17T15:34:44.728Z,13.09
2023-03-17T15:37:01.761Z,13.04
2023-03-17T15:39:18.999Z,12.98
2023-03-17T15:41:36.223Z,12.94
2023-03-17T15:43:53.458Z,12.88
2023-03-17T15:46:10.498Z,12.83
2023-03-17T15:48:27.503Z,12.78
2023-03-17T15:50:44.862Z,12.74
2023-03-17T15:53:02.087Z,12.69
2023-03-17T15:55:19.314Z,12.67
2023-03-17T15:57:36.344Z,12.65
2023-03-17T15:59:53.257Z,12.58
2023-03-17T16:02:10.309Z,12.52
2023-03-17T16:04:27.330Z,12.48
2023-03-17T16:06:44.667Z,12.46
2023-03-17T16:09:01.901Z,12.44
2023-03-17T16:11:18.981Z,12.41
2023-03-17T16:13:36.255Z,12.34
2023-03-17T16:15:53.664Z,12.29
2023-03-17T16:18:10.922Z,12.22
2023-03-17T16:20:27.848Z,12.14
2023-03-17T16:22:45.139Z,12.05
2023-03-17T16:25:02.316Z,11.99
2023-03-17T16:27:19.210Z,11.93
2023-03-17T16:29:36.139Z,11.87
2023-03-17T16:31:53.414Z,11.81
2023-03-17T16:34:11.489Z,11.74
2023-03-17T16:36:28.528Z,11.66
2023-03-17T16:38:45.490Z,11.60
2023-03-17T16:41:02.688Z,11.54
2023-03-17T16:43:25.261Z,11.53
2023-03-17T16:45:42.855Z,11.45
2023-03-17T16:47:59.783Z,11.38
2023-03-17T16:50:16.790Z,11.29
2023-03-17T16:52:34.020Z,11.23
2023-03-17T16:54:50.950Z,11.17
2023-03-17T16:57:08.178Z,11.13
2023-03-17T16:59:25.193Z,11.06
2023-03-17T17:01:42.061Z,11.01
2023-03-17T17:03:59.345Z,10.95
2023-03-17T17:06:16.613Z,10.91
2023-03-17T17:08:33.547Z,10.87
2023-03-17T17:10:50.693Z,10.79
2023-03-17T17:13:07.880Z,10.71
2023-03-17T17:15:24.856Z,10.67
2023-03-17T17:17:42.093Z,10.62
2023-03-17T17:19:59.362Z,10.55
2023-03-17T17:22:16.392Z,10.50
2023-03-17T17:24:33.396Z,10.46
2023-03-17T17:26:50.626Z,10.40
2023-03-17T17:29:07.562Z,10.34
2023-03-17T17:31:24.567Z,10.34
2023-03-17T17:33:41.794Z,10.29
2023-03-17T17:35:59.023Z,10.22
2023-03-17T17:38:15.995Z,10.14
2023-03-17T17:40:32.996Z,10.09
2023-03-17T17:42:50.015Z,10.07
2023-03-17T17:45:07.289Z,10.03
2023-03-17T17:47:24.220Z,10.00
2023-03-17T17:49:41.428Z,9.97
2023-03-17T17:51:58.741Z,9.94
2023-03-17T17:54:15.727Z,9.88
2023-03-17T17:56:32.637Z,9.81
2023-03-17T17:58:49.917Z,9.76
2023-03-17T18:01:07.008Z,9.72
2023-03-17T18:03:24.009Z,9.67
2023-03-17T18:05:40.944Z,9.61
2023-03-17T18:07:57.851Z,9.56
2023-03-17T18:10:14.798Z,9.51
2023-03-17T18:12:31.814Z,9.47
2023-03-17T18:14:48.856Z,9.39
2023-03-17T18:17:06.102Z,9.36
2023-03-17T18:19:23.014Z,9.32
2023-03-17T18:21:39.922Z,9.30
2023-03-17T18:23:56.962Z,9.27
2023-03-17T18:26:13.941Z,9.24
2023-03-17T18:28:30.841Z,9.23
2023-03-17T18:30:47.777Z,9.19
2023-03-17T18:33:05.139Z,9.14
2023-03-17T18:35:23.240Z,9.09
2023-03-17T18:37:40.318Z,9.06
2023-03-17T18:40:12.534Z,9.05
2023-03-17T18:42:31.447Z,9.03
2023-03-17T18:44:48.752Z,9.02
2023-03-17T18:47:05.664Z,9.00
2023-03-17T18:49:23.797Z,9.01
2023-03-17T18:51:41.141Z,8.99
2023-03-17T18:53:58.286Z,8.95
2023-03-17T18:56:15.547Z,8.92
2023-03-17T18:58:32.638Z,8.89
2023-03-17T19:00:49.618Z,8.86
2023-03-17T19:03:06.740Z,8.85
2023-03-17T19:05:23.682Z,8.82
2023-03-17T19:07:41.019Z,8.80
2023-03-17T19:09:58.344Z,8.78
2023-03-17T19:12:15.282Z,8.80
2023-03-17T19:14:32.381Z,8.81
2023-03-17T19:16:50.279Z,8.80
2023-03-17T19:19:07.380Z,8.77
2023-03-17T19:21:24.548Z,8.74
2023-03-17T19:23:41.665Z,8.74
2023-03-17T19:25:58.865Z,8.75
2023-03-17T19:28:15.965Z,8.72
2023-03-17T19:30:33.544Z,8.69
2023-03-17T19:32:50.733Z,8.66
2023-03-17T19:35:07.992Z,8.64
2023-03-17T19:37:24.947Z,8.61
2023-03-17T19:39:41.913Z,8.61
2023-03-17T19:41:59.337Z,8.62
2023-03-17T19:44:16.315Z,8.61
2023-03-17T19:46:33.487Z,8.61
2023-03-17T19:48:50.825Z,8.57
2023-03-17T19:51:07.767Z,8.53
2023-03-17T19:53:25.692Z,8.56
2023-03-17T19:55:42.619Z,8.54
2023-03-17T19:57:59.572Z,8.52
2023-03-17T20:00:17.824Z,8.50
2023-03-17T20:02:34.765Z,8.49
2023-03-17T20:04:52.767Z,8.47
2023-03-17T20:07:10.144Z,8.47
2023-03-17T20:09:27.240Z,8.46
2023-03-17T20:11:44.306Z,8.46
2023-03-17T20:14:01.223Z,8.46
2023-03-17T20:16:18.184Z,8.44
2023-03-17T20:18:35.529Z,8.40
2023-03-17T20:20:52.780Z,8.40
2023-03-17T20:23:10.715Z,8.38
2023-03-17T20:25:28.636Z,8.38
2023-03-17T20:27:45.707Z,8.38
2023-03-17T20:30:02.640Z,8.34
2023-03-17T20:32:19.750Z,8.34
2023-03-17T20:34:36.813Z,8.33
2023-03-17T20:36:53.726Z,8.33
2023-03-17T20:39:10.974Z,8.36
2023-03-17T20:41:27.920Z,8.34
2023-03-17T20:43:45.136Z,8.32
2023-03-17T20:46:02.211Z,8.32
2023-03-17T20:48:19.504Z,8.31
2023-03-17T20:50:36.863Z,8.31
2023-03-17T20:52:53.899Z,8.29
2023-03-17T20:55:11.178Z,8.30
2023-03-17T20:57:28.281Z,8.30
2023-03-17T20:59:45.708Z,8.30
2023-03-17T21:02:02.701Z,8.29
2023-03-17T21:04:19.767Z,8.28
2023-03-17T21:06:36.696Z,8.27
2023-03-17T21:08:53.843Z,8.25
2023-03-17T21:11:10.768Z,8.23
2023-03-17T21:13:27.869Z,8.23
2023-03-17T21:15:45.191Z,8.23
2023-03-17T21:18:02.515Z,8.24
2023-03-17T21:20:19.721Z,8.26
2023-03-17T21:22:37.056Z,8.26
2023-03-17T21:24:54.368Z,8.22
2023-03-17T21:27:11.422Z,8.22
2023-03-17T21:29:28.356Z,8.20
2023-03-17T21:31:45.677Z,8.20
2023-03-17T21:34:02.620Z,8.19
2023-03-17T21:36:19.955Z,8.19
2023-03-17T21:38:36.872Z,8.17
2023-03-17T21:40:53.937Z,8.14
2023-03-17T21:43:10.893Z,8.14
2023-03-17T21:45:27.917Z,8.15
2023-03-17T21:47:44.952Z,8.17
2023-03-17T21:50:02.058Z,8.15
2023-03-17T21:52:19.176Z,8.15
2023-03-17T21:54:36.450Z,8.15
2023-03-17T21:56:53.452Z,8.15
2023-03-17T21:59:10.488Z,8.13
2023-03-17T22:01:27.430Z,8.13
2023-03-17T22:03:44.386Z,8.12
2023-03-17T22:06:01.318Z,8.11
2023-03-17T22:08:18.250Z,8.13
2023-03-17T22:10:35.171Z,8.13
2023-03-17T22:12:52.255Z,8.11
2023-03-17T22:15:09.187Z,8.10
2023-03-17T22:17:26.424Z,8.10
2023-03-17T22:19:43.316Z,8.10
2023-03-17T22:22:00.450Z,8.07
2023-03-17T22:24:17.367Z,8.07
2023-03-17T22:26:34.281Z,8.06
2023-03-17T22:28:51.195Z,8.05
2023-03-17T22:31:08.145Z,8.05
2023-03-17T22:33:25.031Z,8.04
2023-03-17T22:35:42.079Z,8.04
2023-03-17T22:37:59.288Z,8.03
2023-03-17T22:40:16.152Z,8.05
2023-03-17T22:42:33.161Z,8.09
2023-03-17T22:44:50.062Z,8.07
2023-03-17T22:47:07.320Z,8.04
2023-03-17T22:49:24.413Z,8.02
2023-03-17T22:51:41.731Z,8.00
2023-03-17T22:53:58.668Z,8.00
2023-03-17T22:56:15.641Z,7.98
2023-03-17T22:58:32.628Z,7.97
2023-03-17T23:00:49.585Z,7.96
2023-03-17T23:03:06.693Z,7.97
2023-03-17T23:05:23.721Z,7.97
2023-03-17T23:07:49.761Z,7.98
2023-03-17T23:10:07.879Z,8.00
2023-03-17T23:12:24.805Z,8.00
2023-03-17T23:14:42.016Z,7.96
2023-03-17T23:16:59.426Z,7.94
2023-03-17T23:19:16.331Z,7.92
2023-03-17T23:21:33.231Z,7.92
2023-03-17T23:23:50.545Z,7.91
2023-03-17T23:26:07.496Z,7.89
2023-03-17T23:28:24.379Z,7.90
2023-03-17T23:30:41.430Z,7.91
2023-03-17T23:32:58.504Z,7.90
2023-03-17T23:35:15.601Z,7.90
2023-03-17T23:37:32.662Z,7.89
2023-03-17T23:39:49.666Z,7.88
2023-03-17T23:42:06.551Z,7.89
2023-03-17T23:44:23.536Z,7.88
2023-03-17T23:46:40.367Z,7.88
2023-03-17T23:48:57.262Z,7.87
2023-03-17T23:51:14.553Z,7.86
2023-03-17T23:53:31.461Z,7.87
2023-03-17T23:55:49.380Z,7.84
2023-03-17T23:58:06.377Z,7.84
